KROW/ROW METAR and TAF weather

Enter ICAO airport designator
Station Type Date Time Source
KROW METAR 2022/07/01 00:51 UTC NOAA

KROW 010051Z 22012G18KT 10SM CLR 34/10 A2996 RMK AO2 SLP072 T03440100


Station Type Date Time Source
KROW Decoded METAR 2022/07/01 00:51 UTC NOAA

ROSWELL INDUSTRIAL AIR CENTR, NM, United States (KROW) 33-18N 104-32W 1112M
Jun 30, 2022 - 08:51 PM EDT / 2022.07.01 0051 UTC
Wind: from the SW (220 degrees) at 14 MPH (12 KT) gusting to 21 MPH (18 KT):0
Visibility: 10 mile(s):0
Sky conditions: clear
Temperature: 93.9 F (34.4 C)
Dew Point: 50.0 F (10.0 C)
Relative Humidity: 22%
Pressure (altimeter): 29.96 in. Hg (1014 hPa)
ob: KROW 010051Z 22012G18KT 10SM CLR 34/10 A2996 RMK AO2 SLP072 T03440100
cycle: 1

Station Type Date Time Source
KROW TAF 2022/06/30 20:24 UTC NOAA

TAF
AMD KROW 302021Z 3020/0118 18012G20KT P6SM FEW100
FM010200 18008KT P6SM FEW100 SCT200
FM011300 36008KT P6SM FEW050

Example: see airport list